Time;durP1;ratioP1;P1;durP2;ratioP2;P2;SDS_P1;SDS_P2;PMS_P1;PMS_P2;Temp;Humidity;BMP_temperature;BMP_pressure;BME280_temperature;BME280_humidity;BME280_pressure;Samples;Min_cycle;Max_cycle;Signal;HPM_P1;HPM_P2
2021/01/26 00:00:18;;;;;;;7.87;3.55;;;;;;;6.29;81.93;99407.33;1789003;80;21001;-78
2021/01/26 00:02:46;;;;;;;7.05;4.22;;;;;;;6.32;81.85;99400.61;1788890;80;21502;-77
2021/01/26 00:05:15;;;;;;;8.25;2.90;;;;;;;6.33;82.06;99407.95;1789150;79;22244;-81
2021/01/26 00:07:43;;;;;;;6.67;3.83;;;;;;;6.32;82.23;99414.94;1789031;80;20950;-80
2021/01/26 00:10:12;;;;;;;8.10;4.15;;;;;;;6.33;82.34;99417.89;1789088;80;20997;-76
2021/01/26 00:12:40;;;;;;;11.40;3.83;;;;;;;6.34;82.58;99416.16;1789050;80;20993;-76
2021/01/26 00:15:10;;;;;;;9.20;4.53;;;;;;;6.33;82.67;99411.38;1789141;80;20939;-78
2021/01/26 00:17:38;;;;;;;6.03;3.55;;;;;;;6.37;82.74;99414.65;1789041;79;21435;-78
2021/01/26 00:20:09;;;;;;;5.70;2.60;;;;;;;6.39;82.89;99414.92;1789131;80;21696;-79
2021/01/26 00:22:38;;;;;;;5.65;2.47;;;;;;;6.43;83.11;99418.18;1789332;80;20891;-79
2021/01/26 00:25:09;;;;;;;7.35;3.00;;;;;;;6.47;83.15;99419.67;1789172;80;21164;-82
2021/01/26 00:27:37;;;;;;;5.87;1.95;;;;;;;6.51;83.11;99405.49;1789208;80;20949;-81
2021/01/26 00:30:11;;;;;;;6.60;2.85;;;;;;;6.55;83.07;99403.55;1789322;80;22263;-79
2021/01/26 00:32:39;;;;;;;4.80;2.60;;;;;;;6.60;82.53;99409.29;1789335;80;20969;-78
2021/01/26 00:35:10;;;;;;;6.28;1.87;;;;;;;6.60;82.53;99409.29;1789378;80;21701;-81
2021/01/26 00:37:39;;;;;;;5.53;2.15;;;;;;;6.62;82.56;99404.34;1789593;80;21032;-81
2021/01/26 00:40:09;;;;;;;7.53;2.35;;;;;;;6.58;82.20;99409.41;1789634;79;21017;-80
2021/01/26 00:42:36;;;;;;;3.42;2.00;;;;;;;6.54;81.59;99400.59;1789434;80;21335;-78
2021/01/26 00:45:09;;;;;;;6.50;2.55;;;;;;;6.50;81.08;99404.31;1789188;80;21104;-80
2021/01/26 00:47:37;;;;;;;6.55;2.35;;;;;;;6.42;80.25;99413.44;1788808;80;20981;-78
2021/01/26 00:50:08;;;;;;;6.95;2.58;;;;;;;6.38;79.24;99412.40;1788765;80;20997;-80
2021/01/26 00:52:36;;;;;;;6.28;2.58;;;;;;;6.31;77.74;99420.23;1788862;80;20894;-78
2021/01/26 00:55:07;;;;;;;7.65;2.77;;;;;;;6.27;77.27;99405.72;1787801;80;21372;-78
2021/01/26 00:57:36;;;;;;;6.45;2.10;;;;;;;6.20;76.42;99430.85;1788819;80;20957;-79
2021/01/26 01:00:10;;;;;;;7.00;2.10;;;;;;;6.13;76.63;99424.33;1761166;80;20946;-76
2021/01/26 01:02:38;;;;;;;6.53;2.35;;;;;;;6.07;76.43;99433.83;1788899;80;20942;-82
2021/01/26 01:05:08;;;;;;;4.92;2.30;;;;;;;6.01;76.75;99455.84;1788985;80;21499;-81
2021/01/26 01:07:37;;;;;;;7.80;3.00;;;;;;;5.97;76.42;99452.22;1789063;79;22092;-82
2021/01/26 01:10:07;;;;;;;6.15;2.47;;;;;;;5.94;76.50;99464.08;1788876;80;20965;-80
2021/01/26 01:12:36;;;;;;;4.05;2.40;;;;;;;5.87;75.82;99476.63;1789001;80;21470;-77
2021/01/26 01:15:06;;;;;;;3.65;2.72;;;;;;;5.81;76.11;99461.37;1788783;79;21026;-82
2021/01/26 01:17:36;;;;;;;9.35;3.15;;;;;;;5.76;75.45;99476.42;1788987;79;21337;-84
2021/01/26 01:20:06;;;;;;;6.65;3.65;;;;;;;5.69;75.58;99481.14;1788688;80;21326;-79
2021/01/26 01:22:35;;;;;;;5.12;3.00;;;;;;;5.66;75.00;99485.67;1788748;79;20922;-80
2021/01/26 01:25:05;;;;;;;6.75;2.98;;;;;;;5.60;75.13;99494.20;1788849;80;20938;-80
2021/01/26 01:27:34;;;;;;;5.28;4.40;;;;;;;5.55;75.59;99505.31;1788854;80;20989;-80
2021/01/26 01:30:07;;;;;;;10.82;4.78;;;;;;;5.50;75.90;99485.72;1788815;79;20993;-79
2021/01/26 01:32:38;;;;;;;11.43;5.65;;;;;;;5.47;76.18;99496.28;1788861;79;22295;-76
2021/01/26 01:35:08;;;;;;;10.63;4.25;;;;;;;5.44;76.53;99508.16;1788806;80;20970;-80
2021/01/26 01:37:36;;;;;;;10.63;4.15;;;;;;;5.41;76.78;99511.78;1788838;80;20918;-80
2021/01/26 01:40:08;;;;;;;7.92;4.10;;;;;;;5.38;77.08;99512.80;1788907;79;20946;-78
2021/01/26 01:42:36;;;;;;;5.35;3.60;;;;;;;5.36;77.36;99521.61;1788824;80;20908;-80
2021/01/26 01:45:08;;;;;;;6.17;4.35;;;;;;;5.33;77.35;99522.59;1788867;80;21679;-80
2021/01/26 01:47:43;;;;;;;7.53;4.55;;;;;;;5.33;77.56;99530.39;1788833;80;20958;-78
2021/01/26 01:50:17;;;;;;;5.50;2.98;;;;;;;5.30;77.46;99521.95;1788357;80;21033;-79
2021/01/26 01:52:45;;;;;;;5.00;3.12;;;;;;;5.25;77.51;99543.47;1789051;79;21411;-78
2021/01/26 01:55:18;;;;;;;4.92;3.05;;;;;;;5.26;77.60;99527.77;1760873;80;20930;-81
2021/01/26 01:57:55;;;;;;;5.97;3.08;;;;;;;5.25;77.36;99520.08;1788791;80;21365;-80
2021/01/26 02:00:23;;;;;;;6.37;3.30;;;;;;;5.23;76.95;99548.73;1788785;80;20922;-78
2021/01/26 02:03:01;;;;;;;5.28;2.85;;;;;;;5.21;76.91;99562.28;1788794;80;21013;-84
2021/01/26 02:05:30;;;;;;;3.37;2.20;;;;;;;5.19;76.67;99551.13;1788755;79;20997;-83
2021/01/26 02:07:58;;;;;;;3.58;2.05;;;;;;;5.18;76.22;99557.26;1788899;80;20993;-80
2021/01/26 02:10:26;;;;;;;3.40;1.77;;;;;;;5.17;75.68;99573.28;1760561;80;21658;-80
2021/01/26 02:12:54;;;;;;;2.25;0.90;;;;;;;5.14;75.25;99579.97;1788738;80;20975;-78
2021/01/26 02:15:22;;;;;;;1.57;0.90;;;;;;;5.10;73.76;99586.71;1788733;80;21013;-82
2021/01/26 02:18:31;;;;;;;1.42;1.20;;;;;;;5.07;73.47;99589.45;1788760;80;21001;-77
2021/01/26 02:21:20;;;;;;;0.80;0.80;;;;;;;5.02;72.98;99588.41;1788810;80;20981;-80
2021/01/26 02:24:30;;;;;;;1.82;1.40;;;;;;;4.93;73.27;99601.42;1788067;79;21301;-77
2021/01/26 02:27:10;;;;;;;1.62;0.88;;;;;;;4.90;73.25;99615.89;1789142;80;20973;-80
2021/01/26 02:30:17;;;;;;;4.25;0.85;;;;;;;4.88;73.73;99627.28;1789141;80;21049;-81
2021/01/26 02:33:26;;;;;;;0.80;0.70;;;;;;;4.86;73.92;99639.51;1788757;80;20910;-78
2021/01/26 02:36:14;;;;;;;0.65;0.65;;;;;;;4.80;74.46;99644.55;1762060;80;21022;-76
2021/01/26 02:39:33;;;;;;;1.47;0.65;;;;;;;4.77;74.49;99639.53;1775844;80;21817;-78
2021/01/26 02:42:22;;;;;;;3.47;1.15;;;;;;;4.71;74.65;99664.08;1775735;80;21577;-80
2021/01/26 02:45:15;;;;;;;0.47;0.42;;;;;;;4.65;74.81;99678.66;1775563;80;21026;-81
2021/01/26 02:48:16;;;;;;;0.98;0.88;;;;;;;4.59;75.18;99681.56;1776405;80;20946;-85
2021/01/26 02:51:15;;;;;;;1.57;1.42;;;;;;;4.54;75.22;99686.16;1775636;80;21016;-81
2021/01/26 02:54:08;;;;;;;1.90;1.40;;;;;;;4.48;75.07;99692.95;1775471;80;21805;-80
2021/01/26 02:57:03;;;;;;;1.07;1.05;;;;;;;4.42;74.54;99694.53;1775439;80;20966;-79
2021/01/26 02:59:52;;;;;;;1.30;1.20;;;;;;;4.38;73.88;99705.98;1775523;80;20994;-81
2021/01/26 03:02:35;;;;;;;2.15;1.52;;;;;;;4.34;73.66;99700.95;1775450;79;20958;-77
2021/01/26 03:05:24;;;;;;;1.80;1.70;;;;;;;4.29;73.52;99700.78;1775863;79;20935;-75
2021/01/26 03:08:08;;;;;;;1.32;1.10;;;;;;;4.22;73.71;99680.78;1778954;80;21825;-78
2021/01/26 03:10:41;;;;;;;1.20;1.12;;;;;;;4.12;73.18;99686.88;1752109;80;20927;-75
2021/01/26 03:13:11;;;;;;;1.25;1.17;;;;;;;4.01;73.39;99686.56;1776451;80;21014;-77
2021/01/26 03:15:57;;;;;;;1.15;0.93;;;;;;;3.91;73.72;99693.95;1776285;80;21069;-76
2021/01/26 03:18:31;;;;;;;0.68;0.68;;;;;;;3.84;73.95;99717.17;1741791;82;20978;-77
2021/01/26 03:21:01;;;;;;;2.35;1.07;;;;;;;3.77;74.28;99729.22;1741561;81;21435;-76
2021/01/26 03:23:38;;;;;;;0.98;0.90;;;;;;;3.69;74.43;99741.22;1741567;82;20966;-79
2021/01/26 03:26:07;;;;;;;1.22;1.10;;;;;;;3.65;74.68;99744.89;1741442;81;21034;-77
2021/01/26 03:28:35;;;;;;;1.47;1.37;;;;;;;3.64;74.81;99756.16;1741375;82;20962;-80
2021/01/26 03:31:03;;;;;;;1.60;1.50;;;;;;;3.61;74.73;99766.22;1741438;82;21380;-81
2021/01/26 03:33:36;;;;;;;1.35;1.00;;;;;;;3.58;74.71;99758.59;1741391;82;21631;-80
2021/01/26 03:36:05;;;;;;;1.32;1.22;;;;;;;3.56;74.73;99773.36;1746302;82;20978;-80
2021/01/26 03:38:35;;;;;;;1.75;1.52;;;;;;;3.51;74.88;99790.42;1748502;82;21002;-80
2021/01/26 03:41:05;;;;;;;1.65;1.40;;;;;;;3.48;74.83;99789.70;1748553;82;20974;-81
2021/01/26 03:43:34;;;;;;;2.37;1.98;;;;;;;3.44;74.72;99801.95;1748587;81;20966;-80
2021/01/26 03:46:26;;;;;;;2.35;2.10;;;;;;;3.40;74.46;99806.03;1748605;82;22174;-83
2021/01/26 03:49:37;;;;;;;3.37;2.95;;;;;;;3.36;74.48;99804.48;1748469;81;20994;-83
2021/01/26 03:52:16;;;;;;;2.30;1.80;;;;;;;3.34;74.48;99811.51;1748510;82;21041;-80
2021/01/26 03:55:03;;;;;;;1.55;1.45;;;;;;;3.27;74.40;99818.24;1772371;80;20891;-78
2021/01/26 03:57:37;;;;;;;1.82;1.70;;;;;;;3.21;74.50;99821.55;1785374;80;21021;-79
2021/01/26 04:00:32;;;;;;;1.65;1.50;;;;;;;3.15;74.49;99833.00;1785581;80;21373;-77
2021/01/26 04:03:37;;;;;;;1.98;1.62;;;;;;;3.10;74.44;99847.91;1785371;80;21428;-82
2021/01/26 04:06:37;;;;;;;1.42;1.30;;;;;;;3.04;74.52;99854.63;1785458;79;20934;-79
2021/01/26 04:09:09;;;;;;;1.10;1.00;;;;;;;3.00;74.58;99871.19;1785480;79;20946;-83
2021/01/26 04:12:04;;;;;;;1.72;1.62;;;;;;;2.96;74.56;99893.80;1755940;80;21476;-84
2021/01/26 04:15:11;;;;;;;2.20;1.92;;;;;;;2.92;74.67;99896.11;1785511;80;21329;-80
2021/01/26 04:17:43;;;;;;;1.72;1.62;;;;;;;2.88;74.75;99901.86;1784962;80;21033;-82
2021/01/26 04:20:16;;;;;;;1.35;1.10;;;;;;;2.85;74.46;99903.75;1785412;80;21061;-82
2021/01/26 04:22:44;;;;;;;1.60;1.50;;;;;;;2.84;74.67;99908.52;1785540;80;20926;-82
2021/01/26 04:25:40;;;;;;;1.55;1.32;;;;;;;2.82;74.56;99915.04;1785581;80;21586;-78
2021/01/26 04:28:13;;;;;;;1.25;1.15;;;;;;;2.82;74.55;99922.81;1785179;79;21683;-82
2021/01/26 04:30:41;;;;;;;1.92;1.55;;;;;;;2.82;74.57;99944.81;1785537;79;20970;-80
2021/01/26 04:33:13;;;;;;;1.72;1.52;;;;;;;2.82;74.59;99942.23;1785561;80;20997;-77
2021/01/26 04:35:42;;;;;;;2.05;1.90;;;;;;;2.84;74.55;99948.19;1780786;80;21022;-78
2021/01/26 04:38:10;;;;;;;2.10;1.57;;;;;;;2.84;74.47;99949.95;1775109;80;21018;-77
2021/01/26 04:40:38;;;;;;;2.60;2.30;;;;;;;2.84;74.56;99959.01;1775098;80;21062;-79
2021/01/26 04:43:30;;;;;;;3.08;2.25;;;;;;;2.83;74.57;99969.83;1753410;80;20994;-81
2021/01/26 04:46:24;;;;;;;5.92;2.70;;;;;;;2.84;74.52;99983.61;1776021;80;20955;-79
2021/01/26 04:49:08;;;;;;;5.33;1.87;;;;;;;2.85;74.58;99986.15;1777178;79;20959;-78
2021/01/26 04:52:01;;;;;;;4.10;2.47;;;;;;;2.86;74.66;100003.35;1777675;80;20930;-76
2021/01/26 04:54:40;;;;;;;4.50;2.35;;;;;;;2.87;74.78;100010.70;1767026;80;21201;-77
2021/01/26 04:57:32;;;;;;;3.25;2.15;;;;;;;2.89;74.86;100020.52;1775719;80;21038;-76
2021/01/26 05:00:29;;;;;;;5.28;2.92;;;;;;;2.89;74.88;100007.56;1778158;80;21026;-78
2021/01/26 05:03:47;;;;;;;4.75;2.62;;;;;;;2.87;74.92;100025.78;1778627;80;21008;-78
2021/01/26 05:06:17;;;;;;;7.58;3.60;;;;;;;2.88;74.97;100026.61;1778017;80;20947;-78
2021/01/26 05:08:49;;;;;;;5.95;3.83;;;;;;;2.86;75.02;100021.94;1777806;79;21829;-80
2021/01/26 05:11:24;;;;;;;2.92;2.35;;;;;;;2.85;75.13;100027.58;1777518;80;21006;-77
2021/01/26 05:14:08;;;;;;;3.85;2.92;;;;;;;2.83;75.17;100031.97;1775090;79;20926;-78
2021/01/26 05:16:46;;;;;;;5.42;2.72;;;;;;;2.82;75.22;100039.78;1775143;80;20946;-80
2021/01/26 05:19:44;;;;;;;9.63;4.33;;;;;;;2.80;75.29;100041.16;1775023;79;21085;-80
2021/01/26 05:22:19;;;;;;;4.92;2.77;;;;;;;2.77;75.44;100045.13;1775487;79;21772;-77
2021/01/26 05:25:04;;;;;;;5.05;2.12;;;;;;;2.75;75.43;100055.99;1774812;80;21069;-76
2021/01/26 05:27:33;;;;;;;2.33;2.12;;;;;;;2.73;75.56;100069.44;1774949;79;21026;-77
2021/01/26 05:30:05;;;;;;;4.67;3.30;;;;;;;2.71;75.67;100082.89;1774835;79;20950;-77
2021/01/26 05:32:37;;;;;;;5.90;4.55;;;;;;;2.70;75.81;100082.52;1774924;79;21023;-77
2021/01/26 05:35:07;;;;;;;6.45;4.10;;;;;;;2.67;75.91;100082.18;1775264;80;21201;-76
2021/01/26 05:37:38;;;;;;;4.17;3.12;;;;;;;2.69;75.97;100083.39;1788673;79;21025;-74
2021/01/26 05:40:14;;;;;;;3.40;3.08;;;;;;;2.68;76.04;100087.73;1788695;79;21367;-75
2021/01/26 05:42:44;;;;;;;7.55;3.98;;;;;;;2.66;76.16;100096.46;1789522;80;21021;-74
2021/01/26 05:45:32;;;;;;;3.75;2.80;;;;;;;2.66;76.14;100099.05;1788965;79;21017;-74
2021/01/26 05:48:08;;;;;;;3.20;2.30;;;;;;;2.66;76.22;100115.42;1788698;79;21272;-74
2021/01/26 05:50:39;;;;;;;2.58;2.37;;;;;;;2.66;76.43;100122.34;1788384;80;21016;-75
2021/01/26 05:53:30;;;;;;;4.58;2.72;;;;;;;2.66;76.54;100138.72;1788646;80;20950;-73
2021/01/26 05:56:11;;;;;;;3.10;2.50;;;;;;;2.68;76.60;100130.91;1788555;80;20966;-76
2021/01/26 05:58:42;;;;;;;6.05;2.72;;;;;;;2.71;76.65;100145.02;1788681;80;21005;-73
2021/01/26 06:01:15;;;;;;;4.05;2.60;;;;;;;2.70;76.67;100157.12;1788617;79;21824;-72
2021/01/26 06:03:44;;;;;;;3.75;2.55;;;;;;;2.72;76.72;100155.80;1787246;80;20969;-76
2021/01/26 06:06:16;;;;;;;3.50;2.50;;;;;;;2.73;76.77;100173.00;1788637;80;20962;-76
2021/01/26 06:08:51;;;;;;;4.80;2.80;;;;;;;2.75;76.89;100169.91;1788656;80;21585;-76
2021/01/26 06:11:29;;;;;;;7.20;2.72;;;;;;;2.78;76.98;100176.30;1788579;79;20954;-74
2021/01/26 06:14:15;;;;;;;3.30;2.40;;;;;;;2.81;76.95;100196.89;1788742;80;21640;-75
2021/01/26 06:16:43;;;;;;;4.65;2.72;;;;;;;2.85;76.91;100215.31;1788556;80;20966;-75
2021/01/26 06:19:14;;;;;;;6.03;3.62;;;;;;;2.87;76.77;100217.41;1760448;80;21017;-75
2021/01/26 06:21:50;;;;;;;10.30;7.90;;;;;;;2.91;76.69;100211.65;1788556;79;21049;-77
2021/01/26 06:24:25;;;;;;;3.95;2.72;;;;;;;2.94;76.75;100204.25;1761656;80;21013;-75
2021/01/26 06:27:26;;;;;;;7.50;3.87;;;;;;;2.94;76.81;100221.08;1788660;80;21357;-74
2021/01/26 06:30:11;;;;;;;4.05;2.83;;;;;;;3.00;76.88;100231.20;1788664;79;21491;-74
2021/01/26 06:32:50;;;;;;;7.67;3.52;;;;;;;3.02;76.90;100235.88;1781897;80;21049;-75
2021/01/26 06:35:59;;;;;;;9.28;5.92;;;;;;;3.03;76.95;100227.23;1788476;80;21048;-74
2021/01/26 06:39:04;;;;;;;4.83;3.15;;;;;;;3.02;77.07;100229.41;1774136;79;20942;-74
2021/01/26 06:42:16;;;;;;;5.30;2.77;;;;;;;3.04;77.09;100250.92;1788789;80;22477;-74
2021/01/26 06:44:58;;;;;;;6.00;4.15;;;;;;;3.06;77.14;100255.60;1788619;80;21617;-74
2021/01/26 06:48:18;;;;;;;4.72;3.47;;;;;;;3.08;77.23;100255.94;1788644;79;20950;-74
2021/01/26 06:51:27;;;;;;;6.00;3.65;;;;;;;3.12;77.27;100243.73;1788687;79;20970;-76
2021/01/26 06:54:41;;;;;;;4.83;4.15;;;;;;;3.16;77.36;100250.51;1753967;80;21034;-75
2021/01/26 06:57:24;;;;;;;9.53;6.78;;;;;;;3.19;77.49;100259.91;1754041;80;22117;-74
2021/01/26 07:00:00;;;;;;;5.17;3.02;;;;;;;3.22;77.57;100272.75;1753742;80;21043;-75
2021/01/26 07:03:11;;;;;;;2.83;2.50;;;;;;;3.27;77.52;100278.18;1754004;81;20988;-75
2021/01/26 07:05:55;;;;;;;5.33;2.65;;;;;;;3.32;77.46;100274.96;1754079;80;20957;-73
2021/01/26 07:08:37;;;;;;;5.17;2.60;;;;;;;3.36;77.40;100282.19;1754203;80;20956;-74
2021/01/26 07:11:20;;;;;;;2.67;2.22;;;;;;;3.41;77.23;100282.86;1754014;80;22363;-74
2021/01/26 07:14:24;;;;;;;4.60;2.70;;;;;;;3.44;77.08;100266.35;1753782;80;21071;-75
2021/01/26 07:17:01;;;;;;;12.35;7.20;;;;;;;3.44;76.92;100274.96;1754249;81;21343;-75
2021/01/26 07:20:10;;;;;;;2.95;2.47;;;;;;;3.48;76.96;100286.08;1754419;80;21086;-74
2021/01/26 07:23:07;;;;;;;6.30;3.35;;;;;;;3.49;76.85;100295.53;1755360;80;21047;-74
2021/01/26 07:26:01;;;;;;;4.42;2.77;;;;;;;3.55;76.86;100301.80;1754963;80;21386;-76
2021/01/26 07:29:07;;;;;;;5.40;3.13;;;;;;;3.60;76.78;100318.48;1754337;80;20952;-75
2021/01/26 07:31:48;;;;;;;6.55;3.42;;;;;;;3.65;76.76;100326.97;1786355;80;20994;-75
2021/01/26 07:34:36;;;;;;;6.97;3.92;;;;;;;3.69;76.65;100337.17;1788632;79;20962;-74
2021/01/26 07:37:16;;;;;;;7.95;4.05;;;;;;;3.69;76.53;100356.62;1780367;79;20942;-74
2021/01/26 07:39:54;;;;;;;4.83;3.22;;;;;;;3.73;76.54;100356.04;1768109;80;21023;-74
2021/01/26 07:42:26;;;;;;;6.92;3.98;;;;;;;3.73;76.49;100359.50;1775354;80;20919;-73
2021/01/26 07:45:13;;;;;;;11.18;6.80;;;;;;;3.76;76.52;100355.95;1775402;80;21005;-74
2021/01/26 07:49:10;;;;;;;6.00;4.15;;;;;;;3.85;76.50;100356.91;1807796;77;22703;-75
2021/01/26 07:51:45;;;;;;;8.13;4.60;;;;;;;3.85;76.42;100367.28;1758546;81;22050;-77
2021/01/26 07:54:21;;;;;;;5.85;3.60;;;;;;;3.89;76.26;100369.30;1753328;80;22360;-82
2021/01/26 07:56:49;;;;;;;9.68;5.42;;;;;;;3.92;76.22;100379.58;1759195;81;21026;-75
2021/01/26 07:59:24;;;;;;;10.30;5.37;;;;;;;3.95;76.17;100382.05;1757864;80;21108;-75
2021/01/26 08:02:00;;;;;;;7.22;4.33;;;;;;;4.00;76.12;100394.39;1758214;80;20995;-74
2021/01/26 08:04:36;;;;;;;4.70;4.20;;;;;;;4.05;75.96;100395.55;1768370;80;20985;-74
2021/01/26 08:07:04;;;;;;;6.60;4.33;;;;;;;4.09;75.90;100390.19;1761531;81;21373;-75
2021/01/26 08:09:40;;;;;;;6.30;3.33;;;;;;;4.12;75.71;100388.77;1738908;81;21036;-76
2021/01/26 08:12:32;;;;;;;5.53;3.52;;;;;;;4.17;75.51;100391.65;1749535;81;20958;-76
2021/01/26 08:15:21;;;;;;;5.70;3.55;;;;;;;4.19;75.32;100384.20;1679678;84;21117;-75
2021/01/26 08:17:49;;;;;;;6.08;3.25;;;;;;;4.22;75.18;100380.63;1652820;85;21179;-76
2021/01/26 08:20:30;;;;;;;5.10;4.05;;;;;;;4.29;74.91;100385.55;1672219;84;21226;-78
2021/01/26 08:23:06;;;;;;;5.92;4.03;;;;;;;4.36;74.77;100382.27;1669301;84;21144;-73
2021/01/26 08:25:41;;;;;;;6.95;4.53;;;;;;;4.47;74.53;100384.00;1653256;85;24561;-76
2021/01/26 08:28:46;;;;;;;5.97;4.92;;;;;;;4.61;74.17;100383.92;1845887;76;22719;-74
2021/01/26 08:31:39;;;;;;;9.55;4.65;;;;;;;4.64;73.77;100385.92;1817966;79;20907;-73
2021/01/26 08:34:29;;;;;;;6.90;4.70;;;;;;;4.72;73.39;100385.18;1817520;77;21815;-74
2021/01/26 08:37:12;;;;;;;7.78;4.00;;;;;;;4.78;73.12;100378.45;1817901;77;20962;-74
2021/01/26 08:39:46;;;;;;;5.92;4.08;;;;;;;4.82;72.71;100383.05;1796731;79;21054;-76
2021/01/26 08:42:49;;;;;;;4.65;3.27;;;;;;;4.89;72.63;100388.41;1818086;78;21006;-73
2021/01/26 08:45:32;;;;;;;4.03;3.10;;;;;;;4.97;72.38;100379.84;1817967;77;21033;-75
2021/01/26 08:48:05;;;;;;;5.60;3.33;;;;;;;5.07;72.17;100385.52;1818025;77;22018;-74
2021/01/26 08:50:43;;;;;;;4.80;3.55;;;;;;;5.17;71.67;100387.28;1817947;78;21033;-74
2021/01/26 08:53:31;;;;;;;6.55;3.95;;;;;;;5.26;71.40;100389.49;1804858;79;21063;-76
2021/01/26 08:56:10;;;;;;;4.85;3.42;;;;;;;5.34;71.02;100380.92;1818010;79;21543;-76
2021/01/26 08:58:55;;;;;;;5.20;3.00;;;;;;;5.40;70.80;100374.17;1817899;79;20938;-75
2021/01/26 09:01:38;;;;;;;7.53;3.35;;;;;;;5.48;70.51;100367.79;1817957;78;22736;-72
2021/01/26 09:04:20;;;;;;;5.25;3.90;;;;;;;5.51;70.42;100368.48;1818016;78;21456;-75
2021/01/26 09:06:48;;;;;;;7.28;3.27;;;;;;;5.63;70.39;100354.59;1817889;79;20887;-74
2021/01/26 09:09:25;;;;;;;6.58;3.45;;;;;;;5.72;69.88;100352.87;1817834;79;21069;-74
2021/01/26 09:11:55;;;;;;;4.60;2.80;;;;;;;5.79;69.32;100341.28;1817935;79;20982;-73
2021/01/26 09:14:46;;;;;;;6.50;3.22;;;;;;;5.82;68.89;100343.73;1817995;79;22290;-72
2021/01/26 09:17:29;;;;;;;7.08;3.80;;;;;;;5.84;69.11;100339.30;1817950;79;21701;-74
2021/01/26 09:20:13;;;;;;;4.45;3.12;;;;;;;5.94;69.16;100331.95;1818053;79;28168;-73
2021/01/26 09:22:41;;;;;;;5.90;3.65;;;;;;;5.99;68.98;100329.53;1817838;77;21547;-74
2021/01/26 09:25:24;;;;;;;5.55;3.15;;;;;;;6.04;68.86;100321.98;1818031;79;21026;-75
2021/01/26 09:28:01;;;;;;;8.25;3.67;;;;;;;6.05;68.89;100323.66;1817748;77;21374;-72
2021/01/26 09:30:29;;;;;;;5.83;3.75;;;;;;;6.08;68.83;100329.58;1817880;79;20999;-72
2021/01/26 09:33:21;;;;;;;7.95;3.45;;;;;;;6.09;68.18;100328.67;1817871;79;20927;-76
2021/01/26 09:36:08;;;;;;;5.25;3.95;;;;;;;6.12;68.37;100344.61;1817978;79;21583;-73
2021/01/26 09:38:45;;;;;;;6.03;3.33;;;;;;;6.19;67.91;100351.22;1817694;78;21349;-74
2021/01/26 09:41:20;;;;;;;5.72;3.37;;;;;;;6.21;67.88;100354.12;1817411;79;22100;-73
2021/01/26 09:43:58;;;;;;;12.70;6.80;;;;;;;6.26;67.24;100351.31;1817299;79;20954;-74
2021/01/26 09:46:33;;;;;;;6.00;3.47;;;;;;;6.28;67.44;100355.98;1780943;79;21543;-72
2021/01/26 09:49:22;;;;;;;12.58;3.52;;;;;;;6.29;67.19;100355.09;1817287;79;20990;-73
2021/01/26 09:52:02;;;;;;;6.85;3.72;;;;;;;6.27;66.66;100356.92;1817250;79;20970;-73
2021/01/26 09:54:33;;;;;;;6.15;2.83;;;;;;;6.21;66.27;100355.43;1817356;79;21295;-73
2021/01/26 09:57:01;;;;;;;6.50;3.25;;;;;;;6.18;66.49;100354.72;1817224;77;20997;-74
2021/01/26 09:59:31;;;;;;;8.38;3.65;;;;;;;6.14;67.08;100360.54;1817275;79;21041;-75
2021/01/26 10:02:01;;;;;;;7.58;3.02;;;;;;;6.16;67.03;100370.89;1817276;79;21011;-74
2021/01/26 10:04:35;;;;;;;5.50;2.90;;;;;;;6.12;67.01;100370.64;1786195;79;20938;-74
2021/01/26 10:07:06;;;;;;;7.78;3.67;;;;;;;6.06;67.42;100375.66;1813439;79;21423;-74
2021/01/26 10:09:37;;;;;;;7.92;4.00;;;;;;;6.04;67.65;100374.88;1817214;77;21093;-73
2021/01/26 10:12:28;;;;;;;4.90;2.72;;;;;;;6.01;67.74;100370.66;1817339;79;20957;-72
2021/01/26 10:15:12;;;;;;;4.00;3.40;;;;;;;5.99;67.99;100366.44;1817238;78;20911;-73
2021/01/26 10:17:51;;;;;;;7.03;2.65;;;;;;;5.97;68.20;100383.88;1817286;78;20986;-73
2021/01/26 10:20:31;;;;;;;11.75;2.75;;;;;;;5.96;68.50;100375.70;1817274;79;21382;-73
2021/01/26 10:23:12;;;;;;;7.97;3.37;;;;;;;5.96;68.52;100375.23;1804551;79;21058;-74
2021/01/26 10:25:43;;;;;;;3.85;2.52;;;;;;;5.98;68.82;100378.62;1817259;77;20938;-73
2021/01/26 10:28:28;;;;;;;4.45;2.75;;;;;;;6.04;68.33;100362.33;1817081;78;20967;-74
2021/01/26 10:30:57;;;;;;;6.35;3.45;;;;;;;6.10;68.09;100360.75;1816605;79;21360;-74
2021/01/26 10:33:38;;;;;;;5.78;2.60;;;;;;;6.14;67.89;100354.03;1817188;79;22528;-72
2021/01/26 10:36:32;;;;;;;5.55;2.70;;;;;;;6.19;68.13;100361.63;1817313;78;20934;-72
2021/01/26 10:39:27;;;;;;;5.97;3.10;;;;;;;6.28;68.00;100351.25;1761185;79;21501;-74
2021/01/26 10:42:23;;;;;;;7.85;3.65;;;;;;;6.39;67.86;100347.22;1836590;77;27888;-73
2021/01/26 10:44:55;;;;;;;5.90;2.80;;;;;;;6.38;67.54;100340.34;1820016;78;20940;-73
2021/01/26 10:47:35;;;;;;;6.87;3.60;;;;;;;6.42;67.44;100335.37;1820122;78;21372;-71
2021/01/26 10:50:20;;;;;;;4.83;3.30;;;;;;;6.42;67.63;100329.30;1750096;81;20951;-72
2021/01/26 10:52:53;;;;;;;10.80;4.12;;;;;;;6.42;67.73;100320.17;1791744;78;21567;-73
2021/01/26 10:55:22;;;;;;;11.85;5.25;;;;;;;6.41;67.80;100311.53;1750097;81;21167;-71
2021/01/26 10:57:55;;;;;;;8.05;3.40;;;;;;;6.43;68.03;100315.37;1820046;78;21443;-75
2021/01/26 11:00:29;;;;;;;6.05;2.58;;;;;;;6.48;67.71;100317.28;1819836;78;21277;-75
2021/01/26 11:02:58;;;;;;;9.80;3.42;;;;;;;6.46;67.45;100305.27;1750117;82;21444;-77
2021/01/26 11:05:29;;;;;;;8.95;2.50;;;;;;;6.44;67.32;100296.20;1819894;78;21329;-76
2021/01/26 11:08:05;;;;;;;8.83;2.80;;;;;;;6.44;67.61;100304.86;1750030;81;20994;-76
2021/01/26 11:10:35;;;;;;;5.67;3.30;;;;;;;6.46;67.39;100304.80;1819889;78;20938;-75
2021/01/26 11:13:11;;;;;;;6.12;3.00;;;;;;;6.50;67.43;100288.57;1819298;78;21536;-76
2021/01/26 11:15:39;;;;;;;7.78;3.25;;;;;;;6.58;66.92;100288.59;1749880;81;21022;-76
2021/01/26 11:18:13;;;;;;;;;;;;;;;6.67;67.09;100289.90;1822546;78;21782;-75
2021/01/26 11:20:42;;;;;;;10.53;4.75;;;;;;;6.79;66.97;100298.87;1819851;78;20109;-76
2021/01/26 11:23:11;;;;;;;15.48;5.22;;;;;;;6.88;66.26;100302.78;1748525;81;20959;-75
2021/01/26 11:25:42;;;;;;;7.78;3.55;;;;;;;6.95;65.94;100304.98;1820190;78;21356;-78
2021/01/26 11:28:10;;;;;;;6.08;3.20;;;;;;;7.02;65.56;100306.83;1750253;81;20975;-75
2021/01/26 11:30:38;;;;;;;10.48;4.47;;;;;;;7.06;65.64;100296.16;1807760;78;21010;-79
2021/01/26 11:33:07;;;;;;;12.23;6.80;;;;;;;7.11;65.31;100298.54;1804006;79;21014;-75
2021/01/26 11:35:35;;;;;;;10.60;5.03;;;;;;;7.13;65.14;100295.86;1805371;79;21046;-77
2021/01/26 11:38:03;;;;;;;9.70;4.72;;;;;;;7.13;65.11;100297.16;1804383;79;21375;-75
2021/01/26 11:40:31;;;;;;;6.40;4.22;;;;;;;7.14;65.22;100311.91;1803783;79;20958;-76
2021/01/26 11:43:00;;;;;;;9.05;3.85;;;;;;;7.16;65.02;100318.73;1803942;78;21381;-76
2021/01/26 11:45:33;;;;;;;6.25;4.28;;;;;;;7.15;64.72;100325.31;1803821;78;20947;-80
2021/01/26 11:48:00;;;;;;;12.82;5.17;;;;;;;7.08;64.66;100331.77;1803966;79;20895;-77
2021/01/26 11:52:19;;;;;;;10.65;4.25;;;;;;;6.95;65.00;100333.67;1820102;77;23170;-75
2021/01/26 11:54:49;;;;;;;10.35;5.17;;;;;;;6.83;65.33;100336.89;1756602;81;20914;-74
2021/01/26 11:57:17;;;;;;;13.32;4.05;;;;;;;6.79;65.75;100330.97;1754904;81;21278;-76
2021/01/26 11:59:47;;;;;;;7.05;3.50;;;;;;;6.78;65.84;100321.48;1756482;81;20966;-78
2021/01/26 12:02:19;;;;;;;9.33;4.55;;;;;;;6.75;66.04;100325.52;1766168;81;20983;-75
2021/01/26 12:04:47;;;;;;;9.65;3.65;;;;;;;6.73;66.09;100322.61;1765885;81;20966;-73
2021/01/26 12:07:19;;;;;;;7.37;4.80;;;;;;;6.70;65.99;100321.00;1756492;81;20942;-74
2021/01/26 12:09:47;;;;;;;10.65;5.05;;;;;;;6.67;66.21;100334.63;1766283;81;21404;-76
2021/01/26 12:12:15;;;;;;;9.78;5.47;;;;;;;6.64;66.53;100340.38;1756800;81;21037;-75
2021/01/26 12:14:43;;;;;;;8.38;4.65;;;;;;;6.62;66.79;100334.39;1766669;81;21006;-73
2021/01/26 12:17:11;;;;;;;13.13;6.12;;;;;;;6.60;66.76;100321.05;1756364;81;21034;-76
2021/01/26 12:19:39;;;;;;;11.73;5.72;;;;;;;6.58;67.13;100328.09;1766219;81;21046;-74
2021/01/26 12:22:08;;;;;;;11.20;5.00;;;;;;;6.57;67.53;100338.15;1756531;81;21810;-77
2021/01/26 12:24:38;;;;;;;8.88;3.83;;;;;;;6.55;67.88;100339.52;1766180;81;20990;-74
2021/01/26 12:27:06;;;;;;;10.00;4.25;;;;;;;6.51;68.00;100322.80;1755946;81;20946;-76
2021/01/26 12:29:35;;;;;;;9.20;4.67;;;;;;;6.46;68.53;100323.03;1766180;81;20954;-76
2021/01/26 12:32:03;;;;;;;14.53;5.45;;;;;;;6.41;69.00;100332.83;1756512;81;21598;-77